Startpagina
METAR-TAF:

METAR-TAF

Vliegvelden :

Grangeville, Idaho, Verenigde Staten

breedte: 45-56-33N, lengte: 116-07-24W, hoogte: 1010 m

Actueel weer

Dit bericht is 13 minuten geleden gemaakt, om 11:15 UTC
Weinig wind
Temperatuur 12°C
Vochtigheid 62%
Druk 1019 hPa
Zicht: 16.1 km
Onbewolkt

METAR: KGIC 191115Z AUTO 00000KT 10SM CLR 12/05 A3008 RMK AO1

Tijdstip: 04:28 (11:28 UTC)


TAF: ontbreekt

Waarnemingen en weersverwachtingen van meer dan 4000 vliegvelden (METAR en TAF).

De beschikbare stations zijn de gele en rode punten op de kaart.

Ga met uw muis naar het station om de naam te zien.

Klik dan om waarnemingen en weersverwachtingen te zien.

kaart wijzigen: klik op de groene knoppen met een zwart kruis om in te zoomen, op de groene knop met een streepje om uit te zoomen of op de groene pijlen voor aangrenzende kaarten.


METAR-TAF: